Time;durP1;ratioP1;P1;durP2;ratioP2;P2;SDS_P1;SDS_P2;PMS_P1;PMS_P2;Temp;Humidity;BMP_temperature;BMP_pressure;BME280_temperature;BME280_humidity;BME280_pressure;Samples;Min_cycle;Max_cycle;Signal;HPM_P1;HPM_P2
2021/01/18 00:00:25;;;;;;;9.82;3.22;;;24.80;58.70;;;;;;6181731;23;20324;-74
2021/01/18 00:02:51;;;;;;;6.80;2.10;;;24.80;58.70;;;;;;6181793;23;20023;-73
2021/01/18 00:05:18;;;;;;;9.55;2.75;;;24.70;58.60;;;;;;6180643;23;20638;-73
2021/01/18 00:07:49;;;;;;;11.38;3.15;;;24.70;58.80;;;;;;6182334;23;20057;-74
2021/01/18 00:10:22;;;;;;;5.68;2.30;;;24.70;58.80;;;;;;6180945;23;20333;-70
2021/01/18 00:12:53;;;;;;;7.25;2.13;;;24.70;58.90;;;;;;6182222;23;20061;-71
2021/01/18 00:15:23;;;;;;;5.72;1.83;;;24.70;59.00;;;;;;6180540;23;20080;-72
2021/01/18 00:17:50;;;;;;;7.38;2.40;;;24.70;59.10;;;;;;6181874;23;20001;-75
2021/01/18 00:20:20;;;;;;;7.03;2.33;;;24.70;59.20;;;;;;6182150;23;20005;-74
2021/01/18 00:22:47;;;;;;;9.13;2.10;;;24.60;59.10;;;;;;6180743;23;20018;-72
2021/01/18 00:25:22;;;;;;;7.65;2.60;;;24.60;59.20;;;;;;6181619;23;20428;-71
2021/01/18 00:27:49;;;;;;;8.82;3.13;;;24.60;59.30;;;;;;6180432;23;20363;-69
2021/01/18 00:30:24;;;;;;;8.98;2.08;;;24.60;59.40;;;;;;6182181;23;20067;-71
2021/01/18 00:32:51;;;;;;;11.45;2.40;;;24.60;59.50;;;;;;6181311;23;20011;-69
2021/01/18 00:35:20;;;;;;;7.35;2.78;;;24.60;59.60;;;;;;6181803;23;20039;-69
2021/01/18 00:37:51;;;;;;;7.28;2.22;;;24.60;59.60;;;;;;6181582;23;20028;-69
2021/01/18 00:40:20;;;;;;;6.78;3.00;;;24.60;59.70;;;;;;6180444;23;19997;-72
2021/01/18 00:42:47;;;;;;;8.50;2.28;;;24.60;59.80;;;;;;6181420;23;20020;-69
2021/01/18 00:45:17;;;;;;;6.88;1.80;;;24.50;59.80;;;;;;6153933;23;20037;-70
2021/01/18 00:47:46;;;;;;;6.72;2.58;;;24.50;59.90;;;;;;6182262;23;20084;-69
2021/01/18 00:50:14;;;;;;;7.82;2.33;;;24.50;59.90;;;;;;6180418;23;20040;-69
2021/01/18 00:52:42;;;;;;;7.28;2.22;;;24.50;60.00;;;;;;6181181;23;20001;-69
2021/01/18 00:55:12;;;;;;;7.28;2.03;;;24.50;60.00;;;;;;6182029;23;20001;-69
2021/01/18 00:57:39;;;;;;;3.42;2.35;;;24.50;60.00;;;;;;6180325;23;20088;-70
2021/01/18 01:00:09;;;;;;;5.63;2.15;;;24.50;60.10;;;;;;6181300;23;20009;-69
2021/01/18 01:02:41;;;;;;;8.35;2.28;;;24.50;60.20;;;;;;6180074;23;20452;-70
2021/01/18 01:05:13;;;;;;;5.95;1.50;;;24.50;60.30;;;;;;6181677;23;20076;-73
2021/01/18 01:07:44;;;;;;;8.80;2.30;;;24.50;60.30;;;;;;6180607;23;20008;-69
2021/01/18 01:10:15;;;;;;;9.10;2.55;;;24.50;60.30;;;;;;6180812;23;20431;-72
2021/01/18 01:12:41;;;;;;;8.85;2.15;;;24.50;60.40;;;;;;6181124;23;20360;-74
2021/01/18 01:15:09;;;;;;;4.90;2.38;;;24.40;60.50;;;;;;6180487;23;20009;-71
2021/01/18 01:17:46;;;;;;;8.80;2.40;;;24.40;60.60;;;;;;6180758;23;20001;-69
2021/01/18 01:20:18;;;;;;;5.85;2.20;;;24.40;60.60;;;;;;6180242;23;20005;-69
2021/01/18 01:22:45;;;;;;;5.13;2.75;;;24.40;60.60;;;;;;6181018;23;20452;-69
2021/01/18 01:25:13;;;;;;;7.88;3.05;;;24.40;60.60;;;;;;6181274;23;20005;-72
2021/01/18 01:27:41;;;;;;;7.57;1.73;;;24.40;60.80;;;;;;6180586;23;20516;-70
2021/01/18 01:30:10;;;;;;;8.50;3.17;;;24.40;60.80;;;;;;6181060;23;20060;-69
2021/01/18 01:32:42;;;;;;;8.05;2.13;;;24.40;60.70;;;;;;6178256;23;20064;-69
2021/01/18 01:35:10;;;;;;;7.63;2.28;;;24.40;60.80;;;;;;6181385;23;20421;-69
2021/01/18 01:37:37;;;;;;;6.03;2.35;;;24.40;60.90;;;;;;6179620;23;20349;-70
2021/01/18 01:40:09;;;;;;;8.65;2.40;;;24.30;60.80;;;;;;6181643;23;20001;-71
2021/01/18 01:42:36;;;;;;;6.75;2.00;;;24.30;60.80;;;;;;6180951;23;20024;-69
2021/01/18 01:45:05;;;;;;;7.75;2.75;;;24.30;60.80;;;;;;6153676;23;20334;-70
2021/01/18 01:47:33;;;;;;;8.23;2.35;;;24.30;60.80;;;;;;6181352;23;20009;-70
2021/01/18 01:50:05;;;;;;;9.35;2.42;;;24.30;60.80;;;;;;6179648;23;20056;-72
2021/01/18 01:52:34;;;;;;;2.90;2.00;;;24.20;60.80;;;;;;6181128;23;20005;-69
2021/01/18 01:55:08;;;;;;;8.18;2.35;;;24.20;60.70;;;;;;6180267;23;20004;-70
2021/01/18 01:57:36;;;;;;;6.55;2.63;;;24.20;60.70;;;;;;6180742;23;20369;-71
2021/01/18 02:00:04;;;;;;;10.73;3.13;;;24.20;60.60;;;;;;6181248;23;20075;-71
2021/01/18 02:02:30;;;;;;;7.15;2.35;;;24.20;60.70;;;;;;6179682;23;20019;-70
2021/01/18 02:04:57;;;;;;;5.32;1.75;;;24.20;60.70;;;;;;6181028;23;20001;-70
2021/01/18 02:07:28;;;;;;;9.75;3.42;;;24.20;60.70;;;;;;6179577;23;20031;-70
2021/01/18 02:09:56;;;;;;;9.15;3.00;;;24.10;60.70;;;;;;6180984;23;20012;-69
2021/01/18 02:12:25;;;;;;;5.55;1.83;;;24.10;60.70;;;;;;6179592;23;20008;-69
2021/01/18 02:15:36;;;;;;;4.97;2.50;;;24.10;60.70;;;;;;6181077;23;20000;-72
2021/01/18 02:18:42;;;;;;;12.05;2.35;;;24.10;60.70;;;;;;6181538;23;20080;-69
2021/01/18 02:21:43;;;;;;;9.98;3.25;;;24.10;60.80;;;;;;6179716;23;20005;-70
2021/01/18 02:24:52;;;;;;;6.07;2.38;;;24.10;60.90;;;;;;6179778;23;20004;-69
2021/01/18 02:27:55;;;;;;;10.38;2.33;;;24.10;60.90;;;;;;6180782;23;20080;-69
2021/01/18 02:30:37;;;;;;;5.45;2.60;;;24.10;60.80;;;;;;6180859;23;20009;-71
2021/01/18 02:33:39;;;;;;;5.72;2.30;;;24.10;60.90;;;;;;6179599;23;19998;-70
2021/01/18 02:36:17;;;;;;;7.07;2.65;;;24.10;60.90;;;;;;6180569;23;20072;-72
2021/01/18 02:39:16;;;;;;;7.57;2.97;;;24.00;60.90;;;;;;6154196;23;20401;-69
2021/01/18 02:41:50;;;;;;;8.10;2.10;;;24.00;61.00;;;;;;6179428;23;20036;-71
2021/01/18 02:44:19;;;;;;;10.68;2.00;;;24.00;60.90;;;;;;6182814;23;20005;-69
2021/01/18 02:46:48;;;;;;;6.95;2.38;;;24.00;61.00;;;;;;6181520;23;20005;-68
2021/01/18 02:49:18;;;;;;;7.45;2.15;;;24.00;60.90;;;;;;6183179;23;20104;-73
2021/01/18 02:51:49;;;;;;;6.63;2.25;;;24.00;61.00;;;;;;6182395;23;19996;-70
2021/01/18 02:54:16;;;;;;;7.43;2.05;;;24.00;61.00;;;;;;6181687;23;20035;-68
2021/01/18 02:56:50;;;;;;;8.15;1.98;;;23.90;61.00;;;;;;6182696;23;20004;-70
2021/01/18 02:59:17;;;;;;;7.18;2.38;;;23.90;61.00;;;;;;6181802;23;20001;-69
2021/01/18 03:02:09;;;;;;;5.18;2.00;;;23.90;61.00;;;;;;6182868;23;20060;-69
2021/01/18 03:04:49;;;;;;;10.23;2.08;;;23.90;61.00;;;;;;6182314;23;20001;-69
2021/01/18 03:07:23;;;;;;;5.72;2.10;;;23.90;61.10;;;;;;6180550;23;20459;-70
2021/01/18 03:10:04;;;;;;;8.27;2.55;;;23.90;61.00;;;;;;6182493;23;20005;-69
2021/01/18 03:12:51;;;;;;;4.40;1.63;;;23.90;61.00;;;;;;6154505;23;20329;-69
2021/01/18 03:15:21;;;;;;;8.35;3.88;;;23.90;61.10;;;;;;6181549;23;20047;-70
2021/01/18 03:17:51;;;;;;;16.00;12.40;;;23.80;61.10;;;;;;6181356;23;20344;-70
2021/01/18 03:20:19;;;;;;;13.60;10.75;;;23.90;61.10;;;;;;6180968;23;20344;-70
2021/01/18 03:22:46;;;;;;;15.38;8.63;;;23.80;60.90;;;;;;6181690;23;20317;-69
2021/01/18 03:25:13;;;;;;;10.48;5.38;;;23.80;61.00;;;;;;6180794;23;20424;-69
2021/01/18 03:27:53;;;;;;;9.10;3.08;;;23.80;61.00;;;;;;6181615;23;20012;-70
2021/01/18 03:30:21;;;;;;;10.15;3.08;;;23.80;60.80;;;;;;6181300;23;20484;-69
2021/01/18 03:32:55;;;;;;;6.65;2.33;;;23.80;60.90;;;;;;6180788;23;20005;-71
2021/01/18 03:35:23;;;;;;;5.05;1.90;;;23.80;60.80;;;;;;6181740;23;20035;-72
2021/01/18 03:37:56;;;;;;;4.63;2.20;;;23.70;60.80;;;;;;6179568;23;20023;-71
2021/01/18 03:40:24;;;;;;;7.35;2.60;;;23.70;60.80;;;;;;6182416;23;20005;-68
2021/01/18 03:43:05;;;;;;;5.55;1.70;;;23.70;60.80;;;;;;6180720;23;20016;-69
2021/01/18 03:45:41;;;;;;;7.13;1.85;;;23.70;60.80;;;;;;6182004;23;20001;-69
2021/01/18 03:48:09;;;;;;;7.28;1.85;;;23.70;60.80;;;;;;6182354;23;20298;-70
2021/01/18 03:50:37;;;;;;;10.25;1.65;;;23.70;60.80;;;;;;6181041;23;20342;-72
2021/01/18 03:53:04;;;;;;;7.57;1.98;;;23.70;60.70;;;;;;6182238;23;20001;-70
2021/01/18 03:55:31;;;;;;;6.47;1.55;;;23.70;60.70;;;;;;6180800;23;20508;-67
2021/01/18 03:57:58;;;;;;;7.55;1.98;;;23.50;60.80;;;;;;6182648;23;20005;-68
2021/01/18 04:00:29;;;;;;;7.53;2.65;;;23.50;61.10;;;;;;6180104;23;20011;-68
2021/01/18 04:02:57;;;;;;;6.13;1.50;;;23.60;60.90;;;;;;6182779;23;20468;-67
2021/01/18 04:05:25;;;;;;;7.55;3.50;;;23.60;60.80;;;;;;6184138;23;20005;-71
2021/01/18 04:07:53;;;;;;;22.60;13.70;;;23.60;60.70;;;;;;6181831;23;20513;-69
2021/01/18 04:10:24;;;;;;;17.60;12.32;;;23.60;60.70;;;;;;6181644;23;20317;-69
2021/01/18 04:12:51;;;;;;;17.85;8.95;;;23.60;60.60;;;;;;6180408;23;20018;-71
2021/01/18 04:15:21;;;;;;;8.93;5.85;;;23.60;60.50;;;;;;6182291;23;20706;-71
2021/01/18 04:17:55;;;;;;;8.38;4.18;;;23.60;60.40;;;;;;6180956;23;20005;-71
2021/01/18 04:20:23;;;;;;;7.75;2.92;;;23.60;60.50;;;;;;6180711;23;20013;-71
2021/01/18 04:22:55;;;;;;;10.23;2.72;;;23.60;60.50;;;;;;6180429;23;20064;-67
2021/01/18 04:25:23;;;;;;;3.45;1.90;;;23.60;60.50;;;;;;6179174;23;21035;-66
2021/01/18 04:27:55;;;;;;;11.15;6.20;;;23.60;60.50;;;;;;6180123;23;20009;-68
2021/01/18 04:30:23;;;;;;;9.43;6.05;;;23.60;60.50;;;;;;6179975;23;20005;-69
2021/01/18 04:33:00;;;;;;;9.18;4.60;;;23.60;60.50;;;;;;6180161;23;20005;-69
2021/01/18 04:35:28;;;;;;;10.13;3.38;;;23.60;60.50;;;;;;6179763;23;20417;-73
2021/01/18 04:37:58;;;;;;;8.90;3.33;;;23.60;60.50;;;;;;6177636;23;20128;-72
2021/01/18 04:40:29;;;;;;;10.60;3.17;;;23.60;60.60;;;;;;6210288;23;20008;-71
2021/01/18 04:42:56;;;;;;;12.57;4.65;;;23.60;60.60;;;;;;6209298;23;20528;-76
2021/01/18 04:45:25;;;;;;;7.45;4.95;;;23.60;60.60;;;;;;6210317;23;20055;-70
2021/01/18 04:47:53;;;;;;;9.27;3.85;;;23.60;60.70;;;;;;6209371;23;20028;-72
2021/01/18 04:50:23;;;;;;;12.82;4.38;;;23.60;60.70;;;;;;6210102;23;20005;-68
2021/01/18 04:52:52;;;;;;;7.10;2.70;;;23.60;60.80;;;;;;6209690;23;20313;-71
2021/01/18 04:56:17;;;;;;;6.00;2.33;;;23.60;60.80;;;;;;6209044;23;19992;-72
2021/01/18 04:58:48;;;;;;;5.68;2.70;;;23.60;60.80;;;;;;6142293;23;20005;-73
2021/01/18 05:01:17;;;;;;;6.72;2.97;;;23.60;61.50;;;;;;6209723;23;20001;-72
2021/01/18 05:03:45;;;;;;;5.53;2.63;;;23.60;60.90;;;;;;6209388;23;20036;-70
2021/01/18 05:06:12;;;;;;;6.68;1.90;;;23.60;60.90;;;;;;6209884;23;20008;-72
2021/01/18 05:08:52;;;;;;;4.60;2.10;;;23.60;61.00;;;;;;6208697;23;20164;-73
2021/01/18 05:11:19;;;;;;;5.78;1.85;;;23.60;61.00;;;;;;6210010;23;20011;-73
2021/01/18 05:13:46;;;;;;;8.82;2.58;;;23.60;61.00;;;;;;6208219;23;20571;-73
2021/01/18 05:16:14;;;;;;;3.85;1.65;;;23.60;61.00;;;;;;6209945;23;20001;-72
2021/01/18 05:18:43;;;;;;;4.85;2.15;;;23.60;61.00;;;;;;6208898;23;20039;-72
2021/01/18 05:21:11;;;;;;;4.70;1.67;;;23.60;61.10;;;;;;6183035;23;20383;-73
2021/01/18 05:23:46;;;;;;;9.52;1.98;;;23.60;61.10;;;;;;6209841;23;20074;-71
2021/01/18 05:26:21;;;;;;;4.70;2.05;;;23.60;61.10;;;;;;6207818;23;20004;-70
2021/01/18 05:28:49;;;;;;;11.68;1.98;;;23.60;61.10;;;;;;6209965;23;20021;-73
2021/01/18 05:31:27;;;;;;;5.57;2.13;;;23.70;61.20;;;;;;6209317;23;19997;-71
2021/01/18 05:33:55;;;;;;;3.80;1.90;;;23.70;61.20;;;;;;6210027;23;20039;-73
2021/01/18 05:36:54;;;;;;;4.63;1.83;;;23.70;61.10;;;;;;6207977;23;20043;-72
2021/01/18 05:39:21;;;;;;;7.40;1.63;;;23.70;61.20;;;;;;6207996;23;20008;-72
2021/01/18 05:41:50;;;;;;;5.78;2.15;;;23.80;61.30;;;;;;6209527;23;20347;-73
2021/01/18 05:44:18;;;;;;;3.60;1.10;;;23.80;61.20;;;;;;6208559;23;20365;-72
2021/01/18 05:46:47;;;;;;;3.67;1.92;;;23.80;61.20;;;;;;6209408;23;20324;-74
2021/01/18 05:49:20;;;;;;;5.60;1.92;;;23.80;61.20;;;;;;6209442;23;19997;-71
2021/01/18 05:51:54;;;;;;;7.72;2.33;;;23.80;61.20;;;;;;6208339;23;20483;-72
2021/01/18 05:54:26;;;;;;;6.32;2.08;;;23.90;61.20;;;;;;6209693;23;20054;-72
2021/01/18 05:56:54;;;;;;;2.53;1.33;;;23.90;61.10;;;;;;6208297;23;20092;-70
2021/01/18 05:59:22;;;;;;;4.13;1.45;;;23.90;61.10;;;;;;6210256;23;20067;-70
2021/01/18 06:01:51;;;;;;;6.38;2.63;;;23.90;61.00;;;;;;6208576;23;20023;-73
2021/01/18 06:04:57;;;;;;;9.05;1.92;;;23.90;61.00;;;;;;6208776;23;20075;-71
2021/01/18 06:08:03;;;;;;;5.70;1.83;;;24.00;61.00;;;;;;6203992;23;20000;-68
2021/01/18 06:11:13;;;;;;;2.95;1.58;;;24.00;60.90;;;;;;6210219;23;20004;-70
2021/01/18 06:14:19;;;;;;;4.72;2.83;;;24.00;60.80;;;;;;6209600;23;20339;-70
2021/01/18 06:17:25;;;;;;;10.70;3.65;;;24.10;60.80;;;;;;6184416;23;20380;-71
2021/01/18 06:20:40;;;;;;;7.45;3.80;;;24.10;60.80;;;;;;6210977;23;20056;-72
2021/01/18 06:23:49;;;;;;;5.60;2.95;;;24.10;60.60;;;;;;6208292;23;20016;-71
2021/01/18 06:26:55;;;;;;;6.13;2.30;;;24.20;60.50;;;;;;6209670;23;20442;-71
2021/01/18 06:29:56;;;;;;;;;;;24.30;60.50;;;;;;6209962;23;20020;-72
2021/01/18 06:33:02;;;;;;;3.38;2.10;;;24.30;60.40;;;;;;6209034;23;19982;-72
2021/01/18 06:36:08;;;;;;;7.13;2.00;;;24.30;60.20;;;;;;6209224;23;20001;-69
2021/01/18 06:38:57;;;;;;;2.35;1.48;;;24.40;60.20;;;;;;6210187;23;20008;-71
2021/01/18 06:42:06;;;;;;;4.88;2.00;;;24.40;60.10;;;;;;6211006;23;20051;-72
2021/01/18 06:45:12;;;;;;;8.75;2.67;;;24.40;60.10;;;;;;6209053;23;20570;-71
2021/01/18 06:48:18;;;;;;;6.97;2.20;;;24.40;60.00;;;;;;6210040;23;20004;-70
2021/01/18 06:51:24;;;;;;;3.83;1.80;;;24.50;60.00;;;;;;6211081;23;20454;-73
2021/01/18 06:54:30;;;;;;;4.18;1.52;;;24.60;59.90;;;;;;6207858;23;20043;-71
2021/01/18 06:57:40;;;;;;;5.22;2.67;;;24.60;60.00;;;;;;6209335;23;20005;-70
2021/01/18 07:00:07;;;;;;;7.85;3.05;;;24.60;60.00;;;;;;6206032;23;20437;-70
2021/01/18 07:02:38;;;;;;;7.25;3.78;;;24.70;59.80;;;;;;6209365;23;20012;-69
2021/01/18 07:05:10;;;;;;;8.20;4.10;;;24.70;59.80;;;;;;6208261;23;20332;-68
2021/01/18 07:07:38;;;;;;;10.13;4.32;;;24.80;59.70;;;;;;6210116;23;20004;-69
2021/01/18 07:10:10;;;;;;;8.02;4.00;;;24.80;59.80;;;;;;6209873;23;20005;-68
2021/01/18 07:12:37;;;;;;;6.90;2.92;;;24.80;59.60;;;;;;6209243;23;20039;-69
2021/01/18 07:15:11;;;;;;;5.32;2.67;;;24.80;59.40;;;;;;6209676;23;20001;-69
2021/01/18 07:17:51;;;;;;;9.30;4.45;;;24.80;59.50;;;;;;6182706;23;20096;-68
2021/01/18 07:20:23;;;;;;;6.22;3.97;;;24.90;59.30;;;;;;6210787;23;20028;-68
2021/01/18 07:23:26;;;;;;;6.50;3.40;;;24.90;59.30;;;;;;6182060;23;20104;-68
2021/01/18 07:26:03;;;;;;;5.05;2.45;;;24.90;59.50;;;;;;6199901;23;20010;-69
2021/01/18 07:28:33;;;;;;;7.88;3.30;;;25.00;59.40;;;;;;6209680;23;20000;-68
2021/01/18 07:31:00;;;;;;;6.95;2.65;;;25.00;59.40;;;;;;6211595;23;20003;-69
2021/01/18 07:33:27;;;;;;;6.00;2.90;;;25.10;59.60;;;;;;6212585;23;20000;-68
2021/01/18 07:35:54;;;;;;;4.50;2.30;;;25.10;59.50;;;;;;6210976;23;20008;-70
2021/01/18 07:38:24;;;;;;;4.93;1.70;;;25.20;59.50;;;;;;6211814;23;20011;-69
2021/01/18 07:41:13;;;;;;;5.80;2.90;;;25.30;59.30;;;;;;6210911;23;20122;-68
2021/01/18 07:43:45;;;;;;;7.32;2.50;;;25.30;59.60;;;;;;6211869;23;20475;-68
2021/01/18 07:46:28;;;;;;;4.72;2.13;;;25.30;59.10;;;;;;6212386;23;19998;-70
2021/01/18 07:48:55;;;;;;;3.67;1.63;;;25.30;58.90;;;;;;6211280;23;20476;-71
2021/01/18 07:51:29;;;;;;;7.32;1.90;;;25.40;59.40;;;;;;6212339;23;20061;-71
2021/01/18 07:53:56;;;;;;;7.93;3.20;;;25.40;58.70;;;;;;6211001;23;20027;-71
2021/01/18 07:57:05;;;;;;;4.50;2.67;;;25.60;58.40;;;;;;6209074;23;20409;-69
2021/01/18 08:00:10;;;;;;;4.30;1.58;;;25.90;56.80;;;;;;6211321;23;20013;-70
2021/01/18 08:03:21;;;;;;;3.78;1.30;;;26.10;56.40;;;;;;6210844;23;20013;-69
2021/01/18 08:06:28;;;;;;;12.63;6.20;;;26.30;56.80;;;;;;6210514;23;20012;-69
2021/01/18 08:09:13;;;;;;;;;;;26.10;57.80;;;;;;6212273;23;20108;-70
2021/01/18 08:12:18;;;;;;;9.57;3.20;;;26.00;58.30;;;;;;6210300;23;20331;-70
2021/01/18 08:15:30;;;;;;;7.22;3.08;;;25.90;58.60;;;;;;6210636;23;20478;-68
2021/01/18 08:18:45;;;;;;;7.20;3.58;;;25.90;58.70;;;;;;6211218;23;20005;-69
2021/01/18 08:21:33;;;;;;;8.00;3.55;;;26.00;58.80;;;;;;6211589;23;20378;-71
2021/01/18 08:24:22;;;;;;;9.55;2.97;;;26.10;58.60;;;;;;6209807;23;20009;-70
2021/01/18 08:27:15;;;;;;;7.15;2.92;;;26.10;57.70;;;;;;6211306;23;20124;-68
2021/01/18 08:30:21;;;;;;;6.85;2.45;;;26.20;58.10;;;;;;6211265;23;20096;-69
2021/01/18 08:33:36;;;;;;;5.93;2.22;;;26.20;56.50;;;;;;6206352;23;20008;-69
2021/01/18 08:36:51;;;;;;;6.20;2.50;;;26.30;56.50;;;;;;6210074;23;20436;-70
2021/01/18 08:39:57;;;;;;;5.60;1.90;;;26.30;56.20;;;;;;6212117;23;20079;-71
2021/01/18 08:42:50;;;;;;;8.93;3.60;;;26.40;56.20;;;;;;6211854;23;20023;-69
2021/01/18 08:45:28;;;;;;;7.93;5.10;;;26.40;56.50;;;;;;6207437;23;20001;-69
2021/01/18 08:48:00;;;;;;;7.63;3.08;;;26.40;56.00;;;;;;6211786;23;20015;-68
2021/01/18 08:50:48;;;;;;;5.90;2.22;;;26.50;56.00;;;;;;6211198;23;20051;-69
2021/01/18 08:53:40;;;;;;;4.45;2.10;;;26.40;55.50;;;;;;6211192;23;20084;-68
2021/01/18 08:56:28;;;;;;;7.10;1.92;;;26.50;55.60;;;;;;6185273;23;20341;-71
2021/01/18 08:58:55;;;;;;;5.85;2.08;;;26.50;54.90;;;;;;6209810;23;20594;-71
2021/01/18 09:01:30;;;;;;;7.50;2.00;;;26.50;54.60;;;;;;6211590;23;20008;-69
2021/01/18 09:04:01;;;;;;;5.32;1.92;;;26.60;54.30;;;;;;6211280;23;20050;-68
2021/01/18 09:06:28;;;;;;;6.57;2.20;;;26.60;53.80;;;;;;6210980;23;20072;-69
2021/01/18 09:09:07;;;;;;;3.45;1.60;;;26.60;53.60;;;;;;6211591;23;20446;-70
2021/01/18 09:12:13;;;;;;;3.65;1.35;;;26.60;53.30;;;;;;6175938;23;20011;-71
2021/01/18 09:15:19;;;;;;;7.45;1.65;;;26.70;53.10;;;;;;6211060;23;20051;-68
2021/01/18 09:17:47;;;;;;;4.88;1.50;;;26.70;53.20;;;;;;6211227;23;20379;-68
2021/01/18 09:20:14;;;;;;;6.55;2.40;;;26.80;52.90;;;;;;6210481;23;19997;-69
2021/01/18 09:22:43;;;;;;;6.82;1.52;;;26.80;53.30;;;;;;6210459;23;20382;-70
2021/01/18 09:25:11;;;;;;;4.88;1.40;;;26.80;52.70;;;;;;6210642;23;20010;-72
2021/01/18 09:27:39;;;;;;;4.25;1.48;;;26.90;52.40;;;;;;6210452;23;20008;-70
2021/01/18 09:30:18;;;;;;;3.28;0.93;;;27.00;52.50;;;;;;6211796;23;20091;-69
2021/01/18 09:32:59;;;;;;;5.10;1.80;;;26.90;52.20;;;;;;6209765;23;20007;-68
2021/01/18 09:35:34;;;;;;;1.30;1.20;;;27.00;51.90;;;;;;6210722;23;20004;-69
2021/01/18 09:38:00;;;;;;;;;;;27.10;51.90;;;;;;6211387;23;20017;-70
2021/01/18 09:40:28;;;;;;;4.70;1.50;;;27.10;51.40;;;;;;6211133;23;19947;-69
2021/01/18 09:42:56;;;;;;;4.85;1.30;;;27.00;51.20;;;;;;6210297;23;20016;-71
2021/01/18 09:45:24;;;;;;;2.65;1.30;;;27.10;51.50;;;;;;6209979;23;19997;-69
2021/01/18 09:47:51;;;;;;;6.00;1.65;;;27.10;51.10;;;;;;6211027;23;20004;-69
2021/01/18 09:50:20;;;;;;;3.60;1.65;;;27.20;51.20;;;;;;6210352;23;20026;-71
2021/01/18 09:52:48;;;;;;;4.18;2.30;;;27.20;51.00;;;;;;6210759;23;20602;-69
2021/01/18 09:55:23;;;;;;;4.15;1.38;;;27.30;50.90;;;;;;6209746;23;20001;-74
2021/01/18 09:58:06;;;;;;;4.55;1.45;;;27.40;50.60;;;;;;6210709;23;20039;-69
2021/01/18 10:00:38;;;;;;;2.80;1.15;;;27.40;50.40;;;;;;6211300;23;20004;-69
2021/01/18 10:03:05;;;;;;;5.65;1.42;;;27.50;50.70;;;;;;6180195;23;20050;-69
2021/01/18 10:05:40;;;;;;;2.78;1.27;;;27.50;50.20;;;;;;6211213;23;20050;-71
2021/01/18 10:08:28;;;;;;;3.58;1.27;;;27.60;49.80;;;;;;6210065;23;20320;-69
2021/01/18 10:10:55;;;;;;;3.88;1.25;;;27.70;49.70;;;;;;6210298;23;20024;-69
2021/01/18 10:13:23;;;;;;;3.13;1.08;;;27.60;49.50;;;;;;6211526;23;20036;-70
2021/01/18 10:15:50;;;;;;;4.90;1.77;;;27.60;49.70;;;;;;6209538;23;20000;-69
2021/01/18 10:18:31;;;;;;;3.95;1.23;;;27.70;49.60;;;;;;6211203;23;20004;-71
2021/01/18 10:21:37;;;;;;;4.45;1.13;;;27.60;49.60;;;;;;6209633;23;20011;-71
2021/01/18 10:24:46;;;;;;;6.20;1.48;;;27.70;49.20;;;;;;6204471;23;20079;-68
2021/01/18 10:27:52;;;;;;;2.75;1.02;;;27.80;49.50;;;;;;6182161;23;20361;-69
2021/01/18 10:30:58;;;;;;;95.55;71.72;;;27.70;49.70;;;;;;6210322;23;20072;-71
2021/01/18 10:34:05;;;;;;;25.45;18.95;;;27.90;49.80;;;;;;6209532;23;20009;-70
2021/01/18 10:37:12;;;;;;;14.88;10.23;;;28.00;49.10;;;;;;6208408;23;20013;-69
2021/01/18 10:40:18;;;;;;;11.23;8.98;;;28.10;49.20;;;;;;6211474;23;20022;-69
2021/01/18 10:43:28;;;;;;;8.10;6.63;;;28.00;49.00;;;;;;6207877;23;20039;-67
2021/01/18 10:46:34;;;;;;;6.47;5.88;;;28.20;49.00;;;;;;6209155;23;20019;-68
2021/01/18 10:49:43;;;;;;;8.75;3.70;;;28.20;48.90;;;;;;6211004;23;20284;-69
2021/01/18 10:52:55;;;;;;;4.13;2.83;;;28.30;48.80;;;;;;6183051;23;20005;-69
2021/01/18 10:56:01;;;;;;;6.82;2.35;;;28.40;48.90;;;;;;6208844;23;20005;-69
2021/01/18 10:59:16;;;;;;;5.95;2.88;;;28.50;48.60;;;;;;6210425;23;20005;-71
2021/01/18 11:02:41;;;;;;;3.08;2.20;;;28.60;48.30;;;;;;6210488;23;20379;-68
2021/01/18 11:05:56;;;;;;;2.78;2.08;;;28.60;48.30;;;;;;6211758;23;20078;-71
2021/01/18 11:09:02;;;;;;;2.15;1.73;;;28.60;48.10;;;;;;6205807;23;20004;-69
2021/01/18 11:12:08;;;;;;;2.55;1.45;;;28.60;48.30;;;;;;6212077;23;20324;-69
2021/01/18 11:15:17;;;;;;;3.22;1.17;;;28.60;48.00;;;;;;6212313;23;20000;-69
2021/01/18 11:18:23;;;;;;;6.65;1.92;;;28.70;48.00;;;;;;6211124;23;20490;-69
2021/01/18 11:21:33;;;;;;;3.45;1.42;;;28.70;47.80;;;;;;6208072;23;20016;-69
2021/01/18 11:24:39;;;;;;;3.75;1.25;;;28.80;47.50;;;;;;6185481;23;20722;-69
2021/01/18 11:27:45;;;;;;;2.42;1.05;;;28.80;47.80;;;;;;6212565;23;20000;-69
2021/01/18 11:30:51;;;;;;;3.47;1.35;;;28.80;47.30;;;;;;6210884;23;20028;-71
2021/01/18 11:33:58;;;;;;;3.78;1.00;;;28.80;47.20;;;;;;6212079;23;20590;-70
2021/01/18 11:37:04;;;;;;;4.95;2.60;;;28.70;47.10;;;;;;6212469;23;20012;-68
2021/01/18 11:40:10;;;;;;;4.30;2.08;;;28.80;47.30;;;;;;6211389;23;19996;-68
2021/01/18 11:43:17;;;;;;;4.32;1.60;;;28.90;47.50;;;;;;6210901;23;20328;-71
2021/01/18 11:46:23;;;;;;;4.88;1.80;;;29.00;46.90;;;;;;6212343;23;20028;-69
2021/01/18 11:49:29;;;;;;;4.15;1.17;;;29.00;47.20;;;;;;6212045;23;20483;-69
2021/01/18 11:52:35;;;;;;;3.47;1.48;;;28.90;46.70;;;;;;6210777;23;20007;-68
2021/01/18 11:55:42;;;;;;;5.65;1.60;;;29.00;46.70;;;;;;6211309;23;20075;-69
2021/01/18 11:58:48;;;;;;;2.95;1.85;;;29.10;46.70;;;;;;6212386;23;20435;-68
2021/01/18 12:01:54;;;;;;;4.40;1.60;;;29.20;46.20;;;;;;6211785;23;20000;-68
2021/01/18 12:04:21;;;;;;;6.03;1.40;;;29.20;46.50;;;;;;6210641;23;20072;-68
2021/01/18 12:06:47;;;;;;;5.90;1.70;;;29.70;45.30;;;;;;6211948;23;20008;-69
2021/01/18 12:09:15;;;;;;;3.25;1.77;;;29.90;44.20;;;;;;6209996;23;20427;-68
2021/01/18 12:12:21;;;;;;;2.38;1.98;;;30.30;43.90;;;;;;6211913;23;20024;-68
2021/01/18 12:15:27;;;;;;;2.45;1.73;;;30.30;43.80;;;;;;6212005;23;20055;-69
2021/01/18 12:18:33;;;;;;;5.32;2.67;;;30.00;45.00;;;;;;6205345;23;20313;-68
2021/01/18 12:21:40;;;;;;;4.85;2.08;;;29.90;45.90;;;;;;6211233;23;20000;-68
2021/01/18 12:24:46;;;;;;;5.00;2.47;;;29.90;46.60;;;;;;6211796;23;20005;-67
2021/01/18 12:27:52;;;;;;;6.80;2.05;;;29.90;47.30;;;;;;6210456;23;20028;-68
2021/01/18 12:30:59;;;;;;;4.25;1.70;;;30.00;47.50;;;;;;6210650;23;20031;-70
2021/01/18 12:34:05;;;;;;;5.60;2.13;;;30.10;47.60;;;;;;6211785;23;20084;-68
2021/01/18 12:37:14;;;;;;;8.13;2.92;;;30.10;47.80;;;;;;6211563;23;20317;-68
2021/01/18 12:40:20;;;;;;;4.03;1.95;;;30.10;47.70;;;;;;6210334;23;20027;-71
2021/01/18 12:43:26;;;;;;;2.72;1.55;;;30.10;47.70;;;;;;6210709;23;20012;-72
2021/01/18 12:46:32;;;;;;;4.20;2.33;;;30.20;47.70;;;;;;6211698;23;20004;-70
2021/01/18 12:49:38;;;;;;;4.70;1.35;;;30.20;47.40;;;;;;6211063;23;20371;-72
2021/01/18 12:52:44;;;;;;;6.50;2.28;;;30.30;47.60;;;;;;6210390;23;20026;-69
2021/01/18 12:55:50;;;;;;;4.25;2.33;;;30.40;47.70;;;;;;6210964;23;20420;-70
2021/01/18 12:58:56;;;;;;;13.05;2.47;;;30.50;47.80;;;;;;6211347;23;19997;-71
2021/01/18 13:01:49;;;;;;;4.13;1.83;;;30.60;47.80;;;;;;6209938;23;19997;-71
2021/01/18 13:04:55;;;;;;;20.48;2.88;;;30.60;47.70;;;;;;6210108;23;20559;-69
2021/01/18 13:08:06;;;;;;;6.30;2.20;;;30.60;47.60;;;;;;6211736;23;19996;-72
2021/01/18 13:11:21;;;;;;;7.55;2.20;;;30.50;47.40;;;;;;6210931;23;20035;-71
2021/01/18 13:14:27;;;;;;;4.65;1.85;;;30.60;47.50;;;;;;6210127;23;20050;-72
2021/01/18 13:17:33;;;;;;;6.75;2.30;;;30.70;47.60;;;;;;6211523;23;20043;-71
2021/01/18 13:20:39;;;;;;;5.93;2.28;;;30.70;47.30;;;;;;6211528;23;20054;-72
2021/01/18 13:23:45;;;;;;;8.55;2.33;;;30.80;47.10;;;;;;6210260;23;20051;-70
2021/01/18 13:26:51;;;;;;;6.28;1.83;;;30.70;47.10;;;;;;6210466;23;20001;-70
2021/01/18 13:29:57;;;;;;;5.72;2.42;;;30.70;47.40;;;;;;6210391;23;20032;-70
2021/01/18 13:33:03;;;;;;;7.97;2.40;;;30.80;47.40;;;;;;6211369;23;20497;-72
2021/01/18 13:36:09;;;;;;;7.70;2.08;;;30.80;47.50;;;;;;6209864;23;20001;-70
2021/01/18 13:39:15;;;;;;;5.07;2.13;;;30.90;47.20;;;;;;6211134;23;20058;-71
2021/01/18 13:42:21;;;;;;;12.05;2.72;;;30.80;46.90;;;;;;6210938;23;20008;-69
2021/01/18 13:45:27;;;;;;;8.23;2.15;;;30.80;47.10;;;;;;6210170;23;19992;-72
2021/01/18 13:48:34;;;;;;;9.65;3.08;;;30.70;47.20;;;;;;6209979;23;20012;-70
2021/01/18 13:51:40;;;;;;;9.02;2.65;;;30.80;47.30;;;;;;6211507;23;20068;-69
2021/01/18 13:54:46;;;;;;;7.95;2.40;;;30.70;47.20;;;;;;6210787;23;20047;-70
2021/01/18 13:57:52;;;;;;;8.30;2.58;;;30.70;47.20;;;;;;6209514;23;20005;-70
2021/01/18 14:00:58;;;;;;;5.80;2.20;;;30.60;47.40;;;;;;6210419;23;20028;-69
2021/01/18 14:04:07;;;;;;;6.35;2.40;;;30.60;47.00;;;;;;6211076;23;20134;-70
2021/01/18 14:07:13;;;;;;;6.57;2.00;;;30.60;47.50;;;;;;6210187;23;20324;-73
2021/01/18 14:10:19;;;;;;;6.85;2.50;;;30.70;47.40;;;;;;6209735;23;20043;-71
2021/01/18 14:13:25;;;;;;;5.45;2.20;;;30.70;46.90;;;;;;6210862;23;20436;-68